Warning: Javascript must be enabled to use all the features on this page!


Page Loading - Please Wait...

Click to hideNews Bulletins

Peak Streamflow for the Nation

USGS 05422470 Crow Creek at Bettendorf, IA

Scott County, Iowa
Hydrologic Unit Code 07080101
Latitude  41°33'04.12", Longitude  90°27'18.47" NAD83
Drainage area 17.8  square miles
Gage datum 576.68 feet above NAVD88
Output formats
Table
Graph
Tab-separated file
peakfq (watstore) format
Reselect output format
Water
Year
Date Gage
Height
(feet)
Stream-
flow
(cfs)
1978 1978-05-13 5.22 284
1979 1979-08-20 10.20 2,460
1980 1980-08-16 5.16 269
1981 1981-09-26 6.15 534
1982 1982-06-15 10.24 2,490
1983 1983-06-29 9.36 1,960
1984 1984-05-25 5.10 233
1985 1985-03-04 5.65 387
1986 1986-07-09 6.18 553
1987 1987-08-26 7.51 1,350
1988 1988-01-19 5.60 472
1989 1989-09-01 5.59 487
1990 1990-06-16 11.03 7,700
1991 1991-03-02 7.25 1,480
1992 1992-07-16 8.74 2,760
1993 1993-03-22 7.74 1,140
1995 1995-08-18 5.82 551
1996 1996-05-28 8.95 3,050
1997 1997-02-21 6.18 643
1998 1998-06-29 6.12 612
1999 1998-10-17 6.58 875
2000 2000-06-13 7.20 1,320
2001 2001-06-14 7.22 1,330
2002 2002-06-04 8.98 3,290
2003 2003-07-10 5.99 607
2004 2004-05-30 6.95 1,180
2005 2005-01-12 4.38 84.0
2006 2006-04-30 5.74 470
2007 2007-07-04 7.18 1,300
2008 2008-06-13 9.56 3,590
2018 2018-06-20 5.28  
2019 2019-05-29 6.82  
2020 2020-03-28 7.37  
2021 2021-04-10 5.59